createdAt,value
2022-10-15T00:00:17.419Z,0.28
2022-10-15T00:03:03.004Z,0.30
2022-10-15T00:05:48.363Z,0.20
2022-10-15T00:08:34.467Z,0.20
2022-10-15T00:11:22.772Z,0.30
2022-10-15T00:14:08.196Z,0.40
2022-10-15T00:16:53.975Z,0.17
2022-10-15T00:19:39.661Z,0.30
2022-10-15T00:22:25.617Z,0.30
2022-10-15T00:25:11.225Z,0.20
2022-10-15T00:27:56.966Z,0.30
2022-10-15T00:30:42.634Z,0.35
2022-10-15T00:33:28.241Z,0.20
2022-10-15T00:36:16.724Z,0.20
2022-10-15T00:39:03.922Z,0.20
2022-10-15T00:41:49.315Z,0.20
2022-10-15T00:44:38.171Z,0.20
2022-10-15T00:47:41.184Z,0.20
2022-10-15T00:50:28.005Z,0.22
2022-10-15T00:53:13.743Z,0.57
2022-10-15T00:56:00.319Z,0.25
2022-10-15T00:58:46.863Z,0.13
2022-10-15T01:01:32.499Z,0.13
2022-10-15T01:04:18.997Z,0.10
2022-10-15T01:07:04.667Z,0.20
2022-10-15T01:09:50.738Z,0.17
2022-10-15T01:12:49.517Z,0.20
2022-10-15T01:15:39.904Z,0.20
2022-10-15T01:18:36.476Z,0.20
2022-10-15T01:21:25.004Z,0.20
2022-10-15T01:24:37.911Z,0.10
2022-10-15T01:27:38.817Z,0.10
2022-10-15T01:30:38.385Z,0.30
2022-10-15T01:33:45.344Z,0.20
2022-10-15T01:36:52.636Z,0.20
2022-10-15T01:40:19.123Z,0.15
2022-10-15T01:45:58.276Z,0.10
2022-10-15T01:48:44.490Z,0.90
2022-10-15T01:51:31.928Z,0.20
2022-10-15T01:54:19.366Z,0.10
2022-10-15T01:57:06.443Z,0.10
2022-10-15T01:59:52.611Z,0.15
2022-10-15T02:02:38.432Z,0.10
2022-10-15T02:05:28.572Z,0.20
2022-10-15T02:08:44.431Z,0.10
2022-10-15T02:11:34.837Z,0.22
2022-10-15T02:14:29.850Z,0.17
2022-10-15T02:20:14.279Z,0.10
2022-10-15T02:23:12.996Z,0.20
2022-10-15T02:25:59.572Z,0.10
2022-10-15T02:28:50.880Z,0.20
2022-10-15T02:31:40.484Z,0.13
2022-10-15T02:34:29.307Z,0.20
2022-10-15T02:37:16.193Z,0.13
2022-10-15T02:40:01.972Z,0.10
2022-10-15T02:42:47.206Z,0.20
2022-10-15T02:45:32.929Z,0.20
2022-10-15T02:48:18.460Z,0.40
2022-10-15T02:51:04.810Z,0.20
2022-10-15T02:53:50.274Z,0.10
2022-10-15T02:56:39.137Z,0.10
2022-10-15T02:59:24.615Z,0.10
2022-10-15T03:02:14.074Z,0.30
2022-10-15T03:05:02.506Z,0.20
2022-10-15T03:07:47.642Z,0.15
2022-10-15T03:10:33.193Z,0.20
2022-10-15T03:13:18.826Z,0.10
2022-10-15T03:16:06.665Z,0.20
2022-10-15T03:18:52.169Z,0.20
2022-10-15T03:21:37.816Z,0.10
2022-10-15T03:24:23.564Z,0.20
2022-10-15T03:27:09.064Z,0.20
2022-10-15T03:29:54.535Z,0.20
2022-10-15T03:32:40.374Z,0.20
2022-10-15T03:35:25.846Z,0.20
2022-10-15T03:38:11.527Z,0.28
2022-10-15T03:40:57.088Z,0.10
2022-10-15T03:43:43.055Z,0.20
2022-10-15T03:46:29.281Z,0.30
2022-10-15T03:49:14.754Z,0.17
2022-10-15T03:52:00.366Z,0.20
2022-10-15T03:54:45.842Z,0.20
2022-10-15T03:57:31.390Z,0.30
2022-10-15T04:00:17.092Z,0.28
2022-10-15T04:03:02.712Z,0.28
2022-10-15T04:05:54.139Z,0.30
2022-10-15T04:08:40.852Z,0.20
2022-10-15T04:11:26.494Z,0.30
2022-10-15T04:14:11.987Z,0.28
2022-10-15T04:16:59.032Z,0.17
2022-10-15T04:19:44.526Z,0.35
2022-10-15T04:22:30.027Z,0.30
2022-10-15T04:25:16.097Z,0.22
2022-10-15T04:28:02.167Z,0.30
2022-10-15T04:30:47.884Z,0.30
2022-10-15T04:33:33.331Z,0.30
2022-10-15T04:36:18.752Z,0.20
2022-10-15T04:39:05.541Z,0.30
2022-10-15T04:41:50.865Z,0.25
2022-10-15T04:44:36.497Z,1.95
2022-10-15T04:47:22.394Z,0.20
2022-10-15T04:50:08.471Z,0.20
2022-10-15T04:52:54.052Z,0.30
2022-10-15T04:55:39.519Z,0.30
2022-10-15T04:58:24.917Z,0.30
2022-10-15T05:01:14.122Z,0.20
2022-10-15T05:03:59.868Z,0.30
2022-10-15T05:06:45.502Z,0.22
2022-10-15T05:09:31.196Z,0.20
2022-10-15T05:12:16.745Z,0.30
2022-10-15T05:15:02.279Z,0.10
2022-10-15T05:17:47.791Z,0.30
2022-10-15T05:20:33.414Z,0.22
2022-10-15T05:23:18.731Z,0.30
2022-10-15T05:26:10.582Z,0.40
2022-10-15T05:28:58.119Z,0.40
2022-10-15T05:31:43.492Z,0.35
2022-10-15T05:34:30.796Z,0.30
2022-10-15T05:37:16.315Z,0.30
2022-10-15T05:40:01.854Z,0.30
2022-10-15T05:45:37.958Z,0.40
2022-10-15T05:48:23.791Z,0.40
2022-10-15T05:51:12.660Z,0.47
2022-10-15T05:53:58.570Z,0.30
2022-10-15T05:56:44.158Z,0.32
2022-10-15T05:59:29.850Z,0.50
2022-10-15T06:02:16.312Z,0.38
2022-10-15T06:05:02.068Z,0.40
2022-10-15T06:07:47.742Z,0.40
2022-10-15T06:10:37.903Z,0.32
2022-10-15T06:13:23.912Z,0.32
2022-10-15T06:16:10.286Z,0.35
2022-10-15T06:18:55.555Z,0.30
2022-10-15T06:21:40.951Z,0.40
2022-10-15T06:24:26.486Z,0.40
2022-10-15T06:27:13.137Z,0.52
2022-10-15T06:29:58.526Z,0.65
2022-10-15T06:32:51.498Z,0.50
2022-10-15T06:35:36.745Z,0.47
2022-10-15T06:38:22.244Z,0.50
2022-10-15T06:41:08.060Z,0.32
2022-10-15T06:43:54.422Z,0.35
2022-10-15T06:46:40.251Z,0.50
2022-10-15T06:49:25.779Z,0.30
2022-10-15T06:52:11.359Z,0.60
2022-10-15T06:54:56.987Z,0.55
2022-10-15T06:57:42.609Z,0.35
2022-10-15T07:00:28.380Z,0.40
2022-10-15T07:03:14.831Z,0.43
2022-10-15T07:06:05.363Z,0.20
2022-10-15T07:08:50.702Z,0.30
2022-10-15T07:11:36.368Z,0.35
2022-10-15T07:14:21.721Z,0.30
2022-10-15T07:17:09.077Z,0.40
2022-10-15T07:19:54.498Z,0.20
2022-10-15T07:22:39.922Z,0.17
2022-10-15T07:25:26.702Z,0.20
2022-10-15T07:28:12.467Z,0.20
2022-10-15T07:31:03.312Z,0.30
2022-10-15T07:33:49.432Z,0.20
2022-10-15T07:36:34.869Z,0.10
2022-10-15T07:39:20.504Z,0.20
2022-10-15T07:42:06.074Z,0.20
2022-10-15T07:44:51.570Z,0.30
2022-10-15T07:47:37.085Z,0.40
2022-10-15T07:50:22.693Z,0.30
2022-10-15T07:53:08.014Z,0.60
2022-10-15T07:55:53.928Z,0.95
2022-10-15T07:58:39.661Z,0.40
2022-10-15T08:01:25.250Z,0.40
2022-10-15T08:04:10.461Z,0.40
2022-10-15T08:06:56.071Z,0.50
2022-10-15T08:09:41.918Z,0.40
2022-10-15T08:12:27.762Z,0.30
2022-10-15T08:15:13.151Z,0.50
2022-10-15T08:17:59.693Z,0.47
2022-10-15T08:20:45.290Z,0.30
2022-10-15T08:23:30.819Z,0.32
2022-10-15T08:26:16.180Z,0.20
2022-10-15T08:29:02.256Z,0.30
2022-10-15T08:31:49.348Z,0.28
2022-10-15T08:34:34.680Z,0.30
2022-10-15T08:37:20.334Z,0.28
2022-10-15T08:40:07.775Z,0.38
2022-10-15T08:42:53.473Z,0.28
2022-10-15T08:45:42.474Z,0.20
2022-10-15T08:48:35.614Z,0.30
2022-10-15T08:51:25.309Z,0.20
2022-10-15T08:54:16.724Z,0.20
2022-10-15T08:57:39.717Z,0.20
2022-10-15T09:00:32.947Z,0.55
2022-10-15T09:03:48.767Z,0.95
2022-10-15T09:06:38.753Z,0.30
2022-10-15T09:09:48.843Z,0.35
2022-10-15T09:13:07.376Z,0.32
2022-10-15T09:16:10.848Z,0.40
2022-10-15T09:18:58.626Z,0.50
2022-10-15T09:21:45.500Z,0.38
2022-10-15T09:24:35.273Z,0.50
2022-10-15T09:27:49.800Z,0.38
2022-10-15T09:30:40.710Z,0.43
2022-10-15T09:33:37.643Z,0.50
2022-10-15T09:36:51.779Z,0.50
2022-10-15T09:39:57.775Z,0.73
2022-10-15T09:42:44.948Z,0.47
2022-10-15T09:45:31.252Z,0.50
2022-10-15T09:48:19.626Z,0.85
2022-10-15T09:51:25.255Z,0.40
2022-10-15T09:54:45.257Z,0.57
2022-10-15T09:57:33.385Z,0.60
2022-10-15T10:00:19.094Z,1.30
2022-10-15T10:03:07.214Z,0.45
2022-10-15T10:06:04.343Z,0.70
2022-10-15T10:08:55.670Z,0.55
2022-10-15T10:11:53.905Z,0.60
2022-10-15T10:15:00.926Z,0.65
2022-10-15T10:17:53.477Z,0.70
2022-10-15T10:20:53.900Z,0.57
2022-10-15T10:23:39.890Z,0.50
2022-10-15T10:26:26.217Z,0.50
2022-10-15T10:29:32.998Z,0.70
2022-10-15T10:32:23.294Z,0.60
2022-10-15T10:35:24.637Z,0.70
2022-10-15T10:38:32.630Z,0.60
2022-10-15T10:41:18.245Z,0.50
2022-10-15T10:44:03.955Z,0.60
2022-10-15T10:47:23.043Z,0.60
2022-10-15T10:50:33.964Z,0.50
2022-10-15T10:53:24.569Z,0.50
2022-10-15T10:56:13.529Z,0.50
2022-10-15T10:59:04.260Z,0.70
2022-10-15T11:01:52.782Z,0.43
2022-10-15T11:04:40.308Z,0.52
2022-10-15T11:07:47.327Z,0.50
2022-10-15T11:10:44.287Z,0.52
2022-10-15T11:13:47.871Z,0.57
2022-10-15T11:17:09.242Z,0.57
2022-10-15T11:20:44.227Z,0.65
2022-10-15T11:23:28.911Z,0.60
2022-10-15T11:26:37.090Z,0.57
2022-10-15T11:29:54.866Z,0.47
2022-10-15T11:33:05.456Z,0.55
2022-10-15T11:36:00.707Z,0.60
2022-10-15T11:38:51.505Z,0.57
2022-10-15T11:41:55.707Z,0.68
2022-10-15T11:45:08.798Z,0.60
2022-10-15T11:48:00.187Z,0.57
2022-10-15T11:50:50.740Z,0.47
2022-10-15T11:54:09.588Z,0.40
2022-10-15T11:56:59.867Z,0.60
2022-10-15T12:00:01.533Z,0.57
2022-10-15T12:02:48.365Z,0.50
2022-10-15T12:05:45.013Z,0.70
2022-10-15T12:08:37.227Z,0.60
2022-10-15T12:12:02.081Z,0.60
2022-10-15T12:15:10.737Z,0.63
2022-10-15T12:18:10.433Z,0.65
2022-10-15T12:20:58.344Z,1.08
2022-10-15T12:23:43.914Z,0.50
2022-10-15T12:26:34.085Z,0.60
2022-10-15T12:29:27.762Z,0.50
2022-10-15T12:32:25.086Z,0.50
2022-10-15T12:38:51.808Z,0.40
2022-10-15T12:41:43.557Z,0.57
2022-10-15T12:44:31.966Z,0.50
2022-10-15T12:47:50.259Z,0.43
2022-10-15T12:50:37.444Z,0.80
2022-10-15T12:53:34.549Z,0.60
2022-10-15T12:56:24.932Z,0.47
2022-10-15T12:59:50.202Z,0.50
2022-10-15T13:05:35.163Z,0.43
2022-10-15T13:08:26.243Z,0.50
2022-10-15T13:11:31.247Z,0.52
2022-10-15T13:14:39.979Z,0.50
2022-10-15T13:17:25.654Z,0.40
2022-10-15T13:20:37.545Z,0.50
2022-10-15T13:23:31.023Z,0.57
2022-10-15T13:26:19.895Z,0.57
2022-10-15T13:29:05.317Z,0.45
2022-10-15T13:31:53.617Z,0.40
2022-10-15T13:34:40.871Z,0.50
2022-10-15T13:37:35.877Z,0.60
2022-10-15T13:40:24.425Z,0.60
2022-10-15T13:43:24.426Z,0.50
2022-10-15T13:46:15.756Z,0.52
2022-10-15T13:49:03.823Z,0.50
2022-10-15T13:51:52.764Z,0.57
2022-10-15T13:54:39.457Z,0.50
2022-10-15T13:57:25.162Z,0.50
2022-10-15T14:00:21.981Z,0.38
2022-10-15T14:03:24.730Z,0.60
2022-10-15T14:06:20.562Z,0.40
2022-10-15T14:09:14.990Z,0.60
2022-10-15T14:12:03.474Z,0.55
2022-10-15T14:14:49.400Z,0.52
2022-10-15T14:17:34.859Z,0.68
2022-10-15T14:20:27.255Z,0.70
2022-10-15T14:23:21.722Z,0.50
2022-10-15T14:26:07.574Z,0.50
2022-10-15T14:28:55.928Z,0.50
2022-10-15T14:31:45.241Z,0.60
2022-10-15T14:34:33.640Z,0.80
2022-10-15T14:37:40.249Z,0.55
2022-10-15T14:40:25.906Z,0.47
2022-10-15T14:43:17.711Z,0.47
2022-10-15T14:46:06.952Z,0.60
2022-10-15T14:48:52.260Z,0.60
2022-10-15T14:51:37.997Z,0.50
2022-10-15T14:54:40.410Z,0.60
2022-10-15T14:57:29.350Z,0.50
2022-10-15T15:00:28.794Z,0.60
2022-10-15T15:03:17.819Z,0.70
2022-10-15T15:06:03.202Z,0.63
2022-10-15T15:08:48.631Z,0.70
2022-10-15T15:11:34.367Z,0.70
2022-10-15T15:14:24.014Z,0.60
2022-10-15T15:17:15.864Z,0.65
2022-10-15T15:20:01.348Z,1.35
2022-10-15T15:22:50.328Z,0.80
2022-10-15T15:25:37.219Z,0.80
2022-10-15T15:28:25.591Z,1.25
2022-10-15T15:31:17.026Z,0.80
2022-10-15T15:34:02.621Z,0.93
2022-10-15T15:36:48.980Z,0.70
2022-10-15T15:39:34.200Z,0.93
2022-10-15T15:42:22.487Z,0.52
2022-10-15T15:45:20.551Z,0.60
2022-10-15T15:48:06.803Z,0.80
2022-10-15T15:50:52.831Z,1.30
2022-10-15T15:53:38.439Z,0.82
2022-10-15T15:56:24.138Z,0.70
2022-10-15T15:59:09.804Z,0.80
2022-10-15T16:01:55.632Z,0.80
2022-10-15T16:04:40.958Z,0.68
2022-10-15T16:07:28.493Z,1.00
2022-10-15T16:10:14.020Z,1.10
2022-10-15T16:12:59.704Z,0.90
2022-10-15T16:15:45.085Z,1.02
2022-10-15T16:18:30.676Z,0.60
2022-10-15T16:21:25.221Z,0.95
2022-10-15T16:24:10.798Z,0.88
2022-10-15T16:26:56.072Z,0.60
2022-10-15T16:29:41.568Z,0.70
2022-10-15T16:32:27.153Z,0.70
2022-10-15T16:35:12.668Z,0.75
2022-10-15T16:37:58.479Z,1.00
2022-10-15T16:40:46.871Z,0.90
2022-10-15T16:43:33.137Z,0.98
2022-10-15T16:46:19.466Z,1.00
2022-10-15T16:49:04.973Z,1.30
2022-10-15T16:51:50.389Z,1.30
2022-10-15T16:54:36.199Z,1.00
2022-10-15T16:57:21.932Z,0.88
2022-10-15T17:00:08.589Z,0.82
2022-10-15T17:02:55.237Z,0.75
2022-10-15T17:05:40.819Z,0.70
2022-10-15T17:08:34.842Z,0.88
2022-10-15T17:11:23.434Z,0.82
2022-10-15T17:14:11.938Z,0.70
2022-10-15T17:16:57.494Z,0.60
2022-10-15T17:19:43.029Z,0.60
2022-10-15T17:22:28.485Z,0.85
2022-10-15T17:25:14.111Z,0.70
2022-10-15T17:27:59.825Z,0.75
2022-10-15T17:30:45.528Z,0.52
2022-10-15T17:33:30.836Z,0.65
2022-10-15T17:36:22.234Z,0.77
2022-10-15T17:39:08.121Z,1.20
2022-10-15T17:41:53.599Z,1.20
2022-10-15T17:44:39.020Z,0.90
2022-10-15T17:47:24.771Z,0.70
2022-10-15T17:50:13.380Z,0.60
2022-10-15T17:53:01.245Z,0.63
2022-10-15T17:55:46.884Z,0.70
2022-10-15T17:58:32.397Z,0.70
2022-10-15T18:01:33.581Z,0.80
2022-10-15T18:04:31.205Z,1.02
2022-10-15T18:07:18.831Z,2.08
2022-10-15T18:10:04.688Z,0.60
2022-10-15T18:12:50.319Z,0.50
2022-10-15T18:15:38.722Z,0.80
2022-10-15T18:18:25.098Z,0.85
2022-10-15T18:21:12.310Z,1.55
2022-10-15T18:24:00.045Z,0.73
2022-10-15T18:26:45.213Z,0.65
2022-10-15T18:29:31.213Z,0.50
2022-10-15T18:32:16.660Z,0.70
2022-10-15T18:35:02.037Z,0.60
2022-10-15T18:37:49.539Z,0.60
2022-10-15T18:40:40.966Z,0.60
2022-10-15T18:43:26.490Z,0.68
2022-10-15T18:46:11.972Z,0.65
2022-10-15T18:48:57.922Z,0.80
2022-10-15T18:51:46.354Z,0.50
2022-10-15T18:54:36.330Z,0.60
2022-10-15T18:57:22.139Z,0.40
2022-10-15T19:00:08.035Z,0.70
2022-10-15T19:02:53.288Z,0.63
2022-10-15T19:05:38.897Z,0.60
2022-10-15T19:08:27.915Z,0.60
2022-10-15T19:11:13.519Z,0.60
2022-10-15T19:14:00.419Z,0.70
2022-10-15T19:16:47.101Z,0.60
2022-10-15T19:19:32.412Z,0.70
2022-10-15T19:22:18.392Z,0.80
2022-10-15T19:25:04.243Z,1.00
2022-10-15T19:27:49.586Z,1.20
2022-10-15T19:30:34.942Z,0.63
2022-10-15T19:33:20.232Z,0.90
2022-10-15T19:36:05.991Z,0.80
2022-10-15T19:38:51.876Z,0.75
2022-10-15T19:41:39.188Z,0.82
2022-10-15T19:44:26.124Z,0.73
2022-10-15T19:47:11.943Z,0.98
2022-10-15T19:49:57.555Z,0.80
2022-10-15T19:52:43.054Z,0.90
2022-10-15T19:55:28.668Z,0.80
2022-10-15T19:58:14.277Z,0.93
2022-10-15T20:01:00.319Z,0.90
2022-10-15T20:03:45.538Z,0.90
2022-10-15T20:06:31.186Z,1.05
2022-10-15T20:09:16.505Z,0.90
2022-10-15T20:12:02.107Z,1.10
2022-10-15T20:14:47.860Z,1.00
2022-10-15T20:17:33.351Z,1.10
2022-10-15T20:20:18.895Z,1.20
2022-10-15T20:23:04.919Z,1.38
2022-10-15T20:25:50.524Z,1.08
2022-10-15T20:28:37.304Z,1.52
2022-10-15T20:31:28.594Z,1.20
2022-10-15T20:34:14.511Z,1.25
2022-10-15T20:37:00.355Z,1.15
2022-10-15T20:39:45.872Z,1.02
2022-10-15T20:42:34.129Z,1.27
2022-10-15T20:45:19.630Z,1.40
2022-10-15T20:48:05.554Z,1.48
2022-10-15T20:50:53.325Z,1.40
2022-10-15T20:53:39.097Z,1.33
2022-10-15T20:56:24.791Z,1.30
2022-10-15T20:59:10.327Z,1.35
2022-10-15T21:01:55.606Z,1.40
2022-10-15T21:04:41.025Z,1.20
2022-10-15T21:07:26.649Z,1.30
2022-10-15T21:10:12.123Z,1.10
2022-10-15T21:12:57.535Z,1.27
2022-10-15T21:15:42.904Z,1.05
2022-10-15T21:18:29.272Z,1.15
2022-10-15T21:21:15.318Z,1.27
2022-10-15T21:24:00.748Z,1.50
2022-10-15T21:26:46.124Z,1.27
2022-10-15T21:29:31.717Z,1.08
2022-10-15T21:32:17.359Z,1.17
2022-10-15T21:35:03.720Z,1.00
2022-10-15T21:37:49.312Z,1.10
2022-10-15T21:40:34.723Z,1.10
2022-10-15T21:43:20.073Z,1.30
2022-10-15T21:46:11.331Z,1.00
2022-10-15T21:48:57.091Z,1.20
2022-10-15T21:51:42.733Z,1.10
2022-10-15T21:54:28.355Z,1.02
2022-10-15T21:57:13.938Z,1.08
2022-10-15T21:59:59.812Z,1.00
2022-10-15T22:02:49.346Z,1.00
2022-10-15T22:05:34.949Z,1.00
2022-10-15T22:08:20.396Z,1.08
2022-10-15T22:11:11.380Z,1.25
2022-10-15T22:13:59.818Z,1.30
2022-10-15T22:16:45.222Z,0.93
2022-10-15T22:19:30.745Z,1.10
2022-10-15T22:22:16.381Z,1.10
2022-10-15T22:25:01.876Z,1.20
2022-10-15T22:27:47.195Z,1.27
2022-10-15T22:30:35.905Z,1.23
2022-10-15T22:33:21.374Z,1.40
2022-10-15T22:36:13.271Z,1.00
2022-10-15T22:39:03.509Z,1.20
2022-10-15T22:41:48.901Z,1.13
2022-10-15T22:44:34.455Z,1.00
2022-10-15T22:47:20.115Z,1.25
2022-10-15T22:50:06.239Z,1.02
2022-10-15T22:52:51.775Z,1.10
2022-10-15T22:55:37.515Z,1.33
2022-10-15T22:58:23.592Z,1.30
2022-10-15T23:01:10.821Z,1.30
2022-10-15T23:04:02.009Z,1.33
2022-10-15T23:06:47.710Z,1.13
2022-10-15T23:09:33.214Z,1.23
2022-10-15T23:12:18.985Z,1.40
2022-10-15T23:15:05.923Z,1.15
2022-10-15T23:17:51.222Z,1.30
2022-10-15T23:20:40.428Z,1.10
2022-10-15T23:23:25.843Z,1.20
2022-10-15T23:26:13.582Z,1.30
2022-10-15T23:29:00.947Z,1.25
2022-10-15T23:31:47.225Z,1.50
2022-10-15T23:34:32.365Z,1.17
2022-10-15T23:37:18.509Z,1.50
2022-10-15T23:40:04.563Z,1.10
2022-10-15T23:42:49.876Z,1.23
2022-10-15T23:45:38.008Z,1.30
2022-10-15T23:48:27.034Z,1.40
2022-10-15T23:51:22.263Z,1.33
2022-10-15T23:54:15.371Z,1.35
2022-10-15T23:57:01.463Z,1.10
2022-10-15T23:59:46.834Z,1.10
